Terminal Aerodrome Forecast
Issued by NWS

Home | Current Version | Previous Version | Text Only | Print | Product List | Glossary On
Versions: 1 2 3 4 5 6 7 8 9 10 11 12 13 14 15 16 17 18 19 20
000
FTUS44 KTSA 040200 AAA
TAFMLC
TAF AMD
KMLC 040207Z 0402/0424 19004KT 4SM -RA SCT005 OVC020
      TEMPO 0402/0404 2SM -RA BR OVC005
     FM040400 01008KT 4SM -RA BR OVC005
     FM041200 01014G20KT 3SM -RA BR OVC007
     FM041800 01015G22KT 3SM PL BR OVC010
     FM042200 01016G23KT 4SM -SNPL OVC020=

USA.gov is the U.S. government's official web portal to all federal, state and local government web resources and services.